createdAt,value
2017-07-21T00:00:27.429Z,18.07
2017-07-21T00:01:28.004Z,18.33
2017-07-21T00:02:28.579Z,17.90
2017-07-21T00:03:29.155Z,17.72
2017-07-21T00:04:29.730Z,17.67
2017-07-21T00:05:30.306Z,17.67
2017-07-21T00:06:30.882Z,17.60
2017-07-21T00:07:31.456Z,17.71
2017-07-21T00:08:32.031Z,17.86
2017-07-21T00:09:32.605Z,17.68
2017-07-21T00:10:33.180Z,17.67
2017-07-21T00:11:33.767Z,17.79
2017-07-21T00:12:34.344Z,17.68
2017-07-21T00:13:34.922Z,17.83
2017-07-21T00:14:35.497Z,17.94
2017-07-21T00:15:36.073Z,17.95
2017-07-21T00:16:36.650Z,18.00
2017-07-21T00:17:37.226Z,18.07
2017-07-21T00:18:37.801Z,17.85
2017-07-21T00:19:38.389Z,17.92
2017-07-21T00:20:38.964Z,17.72
2017-07-21T00:21:39.541Z,17.65
2017-07-21T00:22:40.118Z,17.57
2017-07-21T00:23:40.696Z,17.63
2017-07-21T00:24:41.283Z,17.49
2017-07-21T00:25:41.857Z,17.59
2017-07-21T00:26:42.433Z,17.56
2017-07-21T00:27:43.009Z,17.83
2017-07-21T00:28:43.584Z,17.76
2017-07-21T00:29:44.160Z,17.64
2017-07-21T00:30:44.735Z,17.65
2017-07-21T00:31:45.310Z,17.97
2017-07-21T00:32:45.888Z,18.00
2017-07-21T00:33:46.462Z,17.54
2017-07-21T00:34:47.039Z,17.85
2017-07-21T00:35:47.615Z,17.74
2017-07-21T00:36:48.192Z,17.56
2017-07-21T00:37:48.771Z,17.51
2017-07-21T00:38:49.348Z,17.64
2017-07-21T00:39:49.923Z,17.46
2017-07-21T00:40:50.499Z,17.42
2017-07-21T00:41:51.073Z,17.38
2017-07-21T00:42:51.651Z,17.16
2017-07-21T00:43:52.226Z,17.15
2017-07-21T00:44:52.803Z,17.16
2017-07-21T00:45:53.377Z,16.93
2017-07-21T00:46:53.953Z,17.02
2017-07-21T00:47:54.529Z,16.97
2017-07-21T00:48:55.105Z,17.16
2017-07-21T00:49:55.679Z,16.96
2017-07-21T00:50:56.256Z,17.08
2017-07-21T00:51:56.831Z,16.99
2017-07-21T00:52:57.407Z,16.91
2017-07-21T00:53:57.984Z,17.11
2017-07-21T00:54:58.556Z,17.15
2017-07-21T00:55:59.131Z,16.91
2017-07-21T00:56:59.707Z,17.05
2017-07-21T00:58:00.282Z,17.01
2017-07-21T00:59:00.857Z,16.91
2017-07-21T01:00:01.443Z,17.09
2017-07-21T01:01:02.017Z,17.02
2017-07-21T01:02:02.593Z,16.91
2017-07-21T01:03:03.168Z,16.86
2017-07-21T01:04:03.745Z,16.84
2017-07-21T01:05:04.320Z,16.86
2017-07-21T01:06:04.905Z,16.78
2017-07-21T01:07:05.485Z,16.99
2017-07-21T01:08:06.055Z,16.69
2017-07-21T01:09:06.630Z,16.81
2017-07-21T01:10:07.204Z,16.69
2017-07-21T01:11:07.784Z,16.71
2017-07-21T01:12:08.353Z,16.72
2017-07-21T01:13:08.929Z,16.66
2017-07-21T01:14:09.517Z,16.90
2017-07-21T01:15:10.092Z,16.79
2017-07-21T01:16:10.668Z,16.71
2017-07-21T01:17:11.244Z,16.74
2017-07-21T01:18:11.819Z,16.93
2017-07-21T01:19:12.404Z,17.06
2017-07-21T01:20:12.990Z,17.01
2017-07-21T01:21:13.565Z,17.14
2017-07-21T01:22:14.141Z,16.99
2017-07-21T01:23:14.716Z,16.94
2017-07-21T01:24:15.292Z,16.89
2017-07-21T01:25:15.878Z,16.72
2017-07-21T01:26:16.453Z,16.57
2017-07-21T01:27:17.040Z,16.66
2017-07-21T01:28:17.626Z,16.65
2017-07-21T01:29:18.202Z,16.51
2017-07-21T01:30:18.778Z,16.54
2017-07-21T01:31:19.354Z,16.51
2017-07-21T01:32:19.930Z,16.43
2017-07-21T01:33:20.504Z,16.54
2017-07-21T01:34:21.081Z,16.65
2017-07-21T01:35:21.668Z,16.56
2017-07-21T01:36:22.244Z,16.42
2017-07-21T01:37:22.819Z,16.47
2017-07-21T01:38:23.395Z,16.71
2017-07-21T01:39:23.979Z,16.58
2017-07-21T01:40:24.557Z,16.49
2017-07-21T01:41:25.137Z,16.49
2017-07-21T01:42:25.704Z,16.41
2017-07-21T01:43:26.277Z,16.43
2017-07-21T01:44:26.852Z,16.81
2017-07-21T01:45:27.440Z,16.71
2017-07-21T01:46:28.016Z,16.64
2017-07-21T01:47:28.591Z,16.46
2017-07-21T01:48:29.169Z,16.43
2017-07-21T01:49:29.755Z,16.38
2017-07-21T01:50:30.342Z,16.65
2017-07-21T01:51:30.917Z,16.58
2017-07-21T01:52:31.492Z,16.69
2017-07-21T01:53:32.067Z,16.74
2017-07-21T01:54:32.644Z,16.41
2017-07-21T01:55:33.218Z,16.60
2017-07-21T01:56:33.793Z,16.33
2017-07-21T01:57:34.374Z,16.35
2017-07-21T01:58:34.944Z,16.26
2017-07-21T01:59:35.518Z,16.75
2017-07-21T02:00:36.094Z,16.66
2017-07-21T02:01:36.667Z,16.56
2017-07-21T02:02:37.243Z,16.38
2017-07-21T02:03:37.830Z,16.42
2017-07-21T02:04:38.406Z,16.51
2017-07-21T02:05:38.981Z,16.58
2017-07-21T02:06:39.558Z,16.72
2017-07-21T02:07:40.133Z,16.51
2017-07-21T02:08:40.710Z,16.53
2017-07-21T02:09:41.286Z,16.47
2017-07-21T02:10:41.860Z,16.61
2017-07-21T02:11:42.435Z,16.39
2017-07-21T02:12:43.010Z,16.38
2017-07-21T02:13:43.583Z,16.49
2017-07-21T02:14:44.158Z,16.61
2017-07-21T02:15:44.735Z,16.54
2017-07-21T02:16:45.309Z,16.91
2017-07-21T02:17:45.883Z,16.51
2017-07-21T02:18:46.458Z,16.38
2017-07-21T02:19:47.033Z,16.38
2017-07-21T02:20:47.608Z,16.41
2017-07-21T02:21:48.182Z,16.31
2017-07-21T02:22:48.782Z,16.39
2017-07-21T02:23:49.331Z,16.42
2017-07-21T02:24:49.906Z,16.53
2017-07-21T02:25:50.479Z,16.38
2017-07-21T02:26:51.055Z,16.69
2017-07-21T02:27:51.629Z,16.60
2017-07-21T02:28:52.205Z,16.58
2017-07-21T02:29:52.778Z,16.72
2017-07-21T02:30:53.353Z,16.64
2017-07-21T02:31:53.928Z,16.65
2017-07-21T02:32:54.503Z,16.96
2017-07-21T02:33:55.078Z,16.97
2017-07-21T02:34:55.651Z,16.36
2017-07-21T02:35:56.224Z,16.58
2017-07-21T02:36:56.800Z,16.81
2017-07-21T02:37:57.374Z,16.28
2017-07-21T02:38:57.958Z,16.32
2017-07-21T02:39:58.524Z,16.50
2017-07-21T02:40:59.100Z,16.49
2017-07-21T02:41:59.675Z,16.50
2017-07-21T02:43:00.249Z,16.65
2017-07-21T02:44:00.822Z,16.76
2017-07-21T02:45:01.398Z,16.78
2017-07-21T02:46:01.971Z,16.39
2017-07-21T02:47:02.546Z,16.31
2017-07-21T02:48:03.121Z,16.38
2017-07-21T02:49:03.697Z,16.21
2017-07-21T02:50:04.271Z,16.29
2017-07-21T02:51:04.845Z,16.29
2017-07-21T02:52:05.421Z,16.35
2017-07-21T02:53:05.995Z,16.35
2017-07-21T02:54:06.570Z,16.04
2017-07-21T02:55:07.145Z,16.33
2017-07-21T02:56:07.720Z,15.95
2017-07-21T02:57:08.293Z,15.83
2017-07-21T02:58:08.868Z,15.86
2017-07-21T02:59:09.446Z,16.09
2017-07-21T03:00:10.017Z,15.94
2017-07-21T03:01:10.593Z,16.12
2017-07-21T03:02:11.168Z,15.98
2017-07-21T03:03:11.743Z,15.92
2017-07-21T03:04:12.319Z,15.88
2017-07-21T03:05:12.895Z,15.94
2017-07-21T03:06:13.473Z,15.79
2017-07-21T03:07:14.047Z,15.75
2017-07-21T03:08:14.623Z,15.97
2017-07-21T03:09:15.200Z,15.94
2017-07-21T03:10:15.776Z,15.97
2017-07-21T03:11:16.351Z,16.04
2017-07-21T03:12:16.939Z,16.17
2017-07-21T03:13:17.515Z,16.12
2017-07-21T03:14:18.089Z,16.04
2017-07-21T03:15:18.666Z,15.98
2017-07-21T03:16:19.242Z,15.97
2017-07-21T03:17:19.818Z,15.90
2017-07-21T03:18:20.392Z,16.00
2017-07-21T03:19:20.967Z,16.24
2017-07-21T03:20:21.543Z,16.50
2017-07-21T03:21:22.116Z,16.46
2017-07-21T03:22:22.691Z,16.39
2017-07-21T03:23:23.268Z,16.38
2017-07-21T03:24:23.840Z,16.24
2017-07-21T03:25:24.423Z,15.90
2017-07-21T03:26:24.989Z,15.83
2017-07-21T03:27:25.563Z,15.76
2017-07-21T03:28:26.138Z,16.09
2017-07-21T03:29:26.713Z,16.10
2017-07-21T03:30:27.290Z,16.09
2017-07-21T03:31:27.863Z,16.20
2017-07-21T03:32:28.439Z,15.97
2017-07-21T03:33:29.015Z,16.47
2017-07-21T03:34:29.590Z,16.28
2017-07-21T03:35:30.167Z,15.95
2017-07-21T03:36:30.746Z,16.29
2017-07-21T03:37:31.321Z,16.21
2017-07-21T03:38:31.897Z,16.24
2017-07-21T03:39:32.472Z,16.23
2017-07-21T03:40:33.048Z,16.39
2017-07-21T03:41:33.624Z,16.58
2017-07-21T03:42:34.199Z,16.00
2017-07-21T03:43:34.774Z,15.98
2017-07-21T03:44:35.351Z,15.83
2017-07-21T03:45:35.927Z,15.97
2017-07-21T03:46:36.502Z,16.00
2017-07-21T03:47:37.081Z,15.83
2017-07-21T03:48:37.674Z,15.82
2017-07-21T03:49:38.244Z,15.65
2017-07-21T03:50:38.819Z,15.59
2017-07-21T03:51:39.394Z,15.88
2017-07-21T03:52:39.973Z,15.75
2017-07-21T03:53:40.549Z,15.72
2017-07-21T03:54:41.128Z,15.98
2017-07-21T03:55:41.703Z,15.79
2017-07-21T03:56:42.279Z,15.80
2017-07-21T03:57:42.854Z,15.92
2017-07-21T03:58:43.431Z,16.08
2017-07-21T03:59:44.006Z,16.51
2017-07-21T04:00:44.583Z,16.47
2017-07-21T04:01:45.162Z,16.65
2017-07-21T04:02:45.738Z,16.20
2017-07-21T04:03:46.317Z,16.16
2017-07-21T04:04:46.893Z,16.15
2017-07-21T04:05:47.470Z,16.08
2017-07-21T04:06:48.055Z,16.23
2017-07-21T04:07:48.622Z,16.09
2017-07-21T04:08:49.210Z,15.77
2017-07-21T04:09:49.788Z,15.75
2017-07-21T04:10:50.364Z,15.95
2017-07-21T04:11:50.940Z,15.95
2017-07-21T04:12:51.514Z,16.12
2017-07-21T04:13:52.095Z,16.08
2017-07-21T04:14:52.672Z,15.84
2017-07-21T04:15:53.250Z,15.91
2017-07-21T04:16:53.826Z,15.68
2017-07-21T04:17:54.404Z,15.75
2017-07-21T04:18:54.980Z,15.84
2017-07-21T04:19:55.558Z,15.95
2017-07-21T04:20:56.137Z,15.77
2017-07-21T04:21:56.712Z,16.05
2017-07-21T04:22:57.291Z,16.04
2017-07-21T04:23:57.867Z,15.76
2017-07-21T04:24:58.444Z,16.17
2017-07-21T04:25:59.021Z,15.72
2017-07-21T04:26:59.609Z,15.76
2017-07-21T04:28:00.186Z,15.82
2017-07-21T04:29:00.775Z,15.73
2017-07-21T04:30:01.363Z,15.70
2017-07-21T04:31:01.939Z,15.77
2017-07-21T04:32:02.528Z,15.70
2017-07-21T04:33:03.105Z,15.68
2017-07-21T04:34:03.694Z,15.76
2017-07-21T04:35:04.283Z,15.75
2017-07-21T04:36:04.862Z,15.65
2017-07-21T04:37:05.439Z,15.65
2017-07-21T04:38:06.017Z,15.65
2017-07-21T04:39:06.595Z,15.65
2017-07-21T07:18:21.972Z,19.04
2017-07-21T07:19:22.550Z,19.12
2017-07-21T07:20:23.129Z,19.52
2017-07-21T07:21:23.713Z,19.54
2017-07-21T07:22:24.289Z,19.37
2017-07-21T07:23:24.869Z,18.80
2017-07-21T07:24:25.450Z,18.90
2017-07-21T07:25:26.029Z,18.90
2017-07-21T07:26:26.608Z,19.12
2017-07-21T07:27:27.189Z,19.12
2017-07-21T07:28:27.769Z,19.19
2017-07-21T07:29:28.350Z,19.00
2017-07-21T07:30:28.929Z,19.11
2017-07-21T07:31:29.509Z,19.19
2017-07-21T07:32:30.089Z,19.34
2017-07-21T07:33:30.669Z,19.29
2017-07-21T07:34:31.248Z,19.49
2017-07-21T07:35:31.828Z,19.21
2017-07-21T07:36:32.407Z,19.63
2017-07-21T07:37:32.988Z,19.66
2017-07-21T07:38:33.567Z,19.56
2017-07-21T07:39:34.147Z,19.49
2017-07-21T07:40:34.726Z,19.29
2017-07-21T07:41:35.306Z,19.58
2017-07-21T07:42:35.887Z,19.55
2017-07-21T07:43:36.469Z,20.04
2017-07-21T07:44:37.050Z,19.37
2017-07-21T07:45:37.630Z,19.33
2017-07-21T07:46:38.209Z,19.55
2017-07-21T07:47:38.792Z,19.55
2017-07-21T07:48:39.372Z,19.47
2017-07-21T07:49:39.952Z,19.63
2017-07-21T07:50:40.532Z,19.49
2017-07-21T07:51:41.110Z,19.64
2017-07-21T07:52:41.696Z,19.45
2017-07-21T07:53:42.284Z,19.99
2017-07-21T07:54:42.865Z,20.07
2017-07-21T07:55:43.446Z,20.10
2017-07-21T07:56:44.028Z,19.63
2017-07-21T07:57:44.607Z,19.59
2017-07-21T07:58:45.188Z,19.44
2017-07-21T07:59:45.781Z,19.56
2017-07-21T08:00:46.362Z,19.63
2017-07-21T08:01:46.954Z,19.76
2017-07-21T08:02:47.538Z,19.74
2017-07-21T08:03:48.117Z,19.82
2017-07-21T08:04:48.698Z,19.62
2017-07-21T08:05:49.280Z,19.62
2017-07-21T08:06:49.871Z,19.56
2017-07-21T08:07:50.452Z,19.85
2017-07-21T08:08:51.030Z,20.19
2017-07-21T08:09:51.611Z,20.14
2017-07-21T08:10:52.193Z,20.10
2017-07-21T08:11:52.772Z,19.94
2017-07-21T08:12:53.364Z,20.18
2017-07-21T08:13:53.945Z,20.04
2017-07-21T08:14:54.527Z,20.19
2017-07-21T08:15:55.104Z,19.85
2017-07-21T08:16:55.686Z,19.81
2017-07-21T08:17:56.266Z,20.10
2017-07-21T08:18:56.848Z,19.76
2017-07-21T08:19:57.429Z,19.73
2017-07-21T08:20:58.008Z,19.89
2017-07-21T08:21:58.590Z,19.99
2017-07-21T08:22:59.169Z,19.99
2017-07-21T08:23:59.751Z,19.88
2017-07-21T08:25:00.330Z,20.02
2017-07-21T08:26:00.912Z,20.24
2017-07-21T08:27:01.493Z,20.31
2017-07-21T08:28:02.072Z,20.78
2017-07-21T08:29:02.654Z,20.74
2017-07-21T08:30:03.248Z,20.70
2017-07-21T08:31:03.834Z,20.65
2017-07-21T08:32:04.408Z,20.70
2017-07-21T08:33:04.988Z,20.48
2017-07-21T08:34:05.569Z,20.88
2017-07-21T08:35:06.153Z,20.39
2017-07-21T08:36:06.737Z,20.69
2017-07-21T08:37:07.313Z,20.47
2017-07-21T08:38:07.895Z,20.99
2017-07-21T08:39:08.476Z,21.00
2017-07-21T08:40:09.060Z,21.51
2017-07-21T08:41:09.639Z,21.50
2017-07-21T08:42:10.220Z,21.27
2017-07-21T08:43:10.803Z,21.05
2017-07-21T08:44:11.382Z,21.24
2017-07-21T08:45:11.964Z,21.06
2017-07-21T08:46:12.544Z,21.06
2017-07-21T08:47:13.125Z,20.95
2017-07-21T08:48:13.708Z,20.67
2017-07-21T08:49:14.288Z,20.84
2017-07-21T08:50:14.871Z,20.92
2017-07-21T08:51:15.450Z,21.15
2017-07-21T08:52:16.032Z,21.51
2017-07-21T08:53:16.615Z,21.15
2017-07-21T08:54:17.198Z,21.03
2017-07-21T08:55:17.790Z,20.92
2017-07-21T08:56:18.372Z,21.40
2017-07-21T08:57:18.952Z,21.93
2017-07-21T08:58:19.533Z,22.11
2017-07-21T08:59:20.116Z,21.93
2017-07-21T09:00:20.710Z,21.95
2017-07-21T09:01:21.303Z,21.33
2017-07-21T09:02:21.885Z,20.93
2017-07-21T09:03:22.476Z,20.81
2017-07-21T09:04:23.058Z,21.00
2017-07-21T09:05:23.639Z,21.05
2017-07-21T09:06:24.258Z,21.06
2017-07-21T09:07:24.839Z,21.35
2017-07-21T09:08:25.421Z,21.03
2017-07-21T09:09:26.015Z,21.39
2017-07-21T09:10:26.609Z,21.69
2017-07-21T09:11:27.204Z,21.64
2017-07-21T09:12:27.785Z,21.32
2017-07-21T09:13:28.378Z,20.92
2017-07-21T09:14:28.960Z,20.92
2017-07-21T09:15:29.543Z,20.97
2017-07-21T09:16:30.125Z,20.92
2017-07-21T09:17:30.706Z,21.25
2017-07-21T09:18:31.301Z,21.37
2017-07-21T09:19:31.881Z,21.39
2017-07-21T09:20:32.463Z,21.39
2017-07-21T09:21:33.046Z,22.00
2017-07-21T09:22:33.629Z,22.22
2017-07-21T09:23:34.209Z,22.17
2017-07-21T09:24:34.790Z,22.41
2017-07-21T09:25:35.374Z,22.63
2017-07-21T09:26:35.960Z,22.50
2017-07-21T09:27:36.538Z,22.88
2017-07-21T09:28:37.120Z,23.39
2017-07-21T09:29:37.700Z,23.09
2017-07-21T09:30:38.284Z,22.73
2017-07-21T09:31:38.865Z,22.72
2017-07-21T09:32:39.446Z,22.54
2017-07-21T09:33:40.027Z,22.57
2017-07-21T09:34:40.609Z,22.15
2017-07-21T09:35:41.192Z,22.22
2017-07-21T09:36:41.785Z,22.47
2017-07-21T09:37:42.367Z,22.96
2017-07-21T09:38:42.952Z,22.96
2017-07-21T09:39:43.545Z,22.62
2017-07-21T09:40:44.125Z,22.47
2017-07-21T09:41:44.706Z,21.91
2017-07-21T09:42:45.287Z,21.79
2017-07-21T09:43:45.870Z,22.20
2017-07-21T09:44:46.452Z,22.10
2017-07-21T09:45:47.032Z,22.38
2017-07-21T09:46:47.616Z,22.41
2017-07-21T09:47:48.209Z,22.15
2017-07-21T09:48:48.790Z,22.66
2017-07-21T09:49:49.371Z,22.18
2017-07-21T09:50:49.954Z,22.44
2017-07-21T09:51:50.549Z,22.18
2017-07-21T09:52:51.130Z,22.23
2017-07-21T09:53:51.714Z,22.29
2017-07-21T09:54:52.307Z,21.99
2017-07-21T09:55:52.889Z,22.10
2017-07-21T09:56:53.473Z,22.14
2017-07-21T09:57:54.054Z,22.06
2017-07-21T09:58:54.638Z,22.22
2017-07-21T09:59:55.220Z,22.06
2017-07-21T10:00:55.802Z,22.11
2017-07-21T10:01:56.397Z,22.38
2017-07-21T10:02:56.993Z,22.75
2017-07-21T10:03:57.571Z,22.18
2017-07-21T10:04:58.164Z,22.44
2017-07-21T10:05:58.745Z,22.83
2017-07-21T10:06:59.329Z,22.80
2017-07-21T10:07:59.909Z,23.23
2017-07-21T10:09:00.491Z,23.20
2017-07-21T10:10:01.084Z,23.74
2017-07-21T10:11:01.692Z,23.59
2017-07-21T10:12:02.276Z,22.66
2017-07-21T10:13:02.856Z,22.59
2017-07-21T10:14:03.439Z,22.80
2017-07-21T10:15:04.021Z,23.03
2017-07-21T10:16:04.603Z,23.00
2017-07-21T10:17:05.187Z,22.80
2017-07-21T10:18:05.766Z,22.91
2017-07-21T10:19:06.348Z,22.96
2017-07-21T10:20:06.929Z,22.48
2017-07-21T10:21:07.510Z,22.65
2017-07-21T10:22:08.093Z,22.83
2017-07-21T10:23:08.675Z,23.24
2017-07-21T10:24:09.259Z,23.27
2017-07-21T10:25:09.841Z,22.93
2017-07-21T10:26:10.424Z,22.45
2017-07-21T10:27:11.008Z,21.95
2017-07-21T10:28:11.589Z,22.23
2017-07-21T10:29:12.170Z,22.17
2017-07-21T10:30:12.751Z,22.50
2017-07-21T10:31:13.334Z,22.72
2017-07-21T10:32:13.921Z,22.83
2017-07-21T10:33:14.498Z,23.24
2017-07-21T10:34:15.082Z,23.73
2017-07-21T10:35:15.661Z,23.87
2017-07-21T10:36:16.242Z,24.26
2017-07-21T10:37:16.825Z,24.14
2017-07-21T10:38:17.406Z,24.17
2017-07-21T10:39:17.990Z,23.47
2017-07-21T10:40:18.576Z,23.09
2017-07-21T10:41:19.154Z,23.39
2017-07-21T10:42:19.739Z,23.84
2017-07-21T10:43:20.320Z,23.56
2017-07-21T10:44:20.902Z,23.05
2017-07-21T10:45:21.484Z,23.27
2017-07-21T10:46:22.065Z,23.17
2017-07-21T10:47:22.653Z,23.58
2017-07-21T10:48:23.233Z,24.28
2017-07-21T10:49:23.825Z,24.47
2017-07-21T10:50:24.408Z,24.20
2017-07-21T10:51:24.989Z,24.26
2017-07-21T10:52:25.585Z,24.03
2017-07-21T10:53:26.167Z,24.30
2017-07-21T10:54:26.761Z,24.70
2017-07-21T10:55:27.342Z,24.38
2017-07-21T10:56:27.926Z,24.57
2017-07-21T10:57:28.508Z,24.42
2017-07-21T10:58:29.091Z,24.65
2017-07-21T10:59:29.675Z,24.88
2017-07-21T11:00:30.258Z,24.66
2017-07-21T11:01:30.854Z,24.36
2017-07-21T11:02:31.436Z,23.91
2017-07-21T11:03:32.020Z,24.32
2017-07-21T11:04:32.604Z,24.36
2017-07-21T11:05:33.203Z,24.65
2017-07-21T11:06:33.785Z,24.77
2017-07-21T11:07:34.388Z,23.91
2017-07-21T11:08:34.949Z,23.68
2017-07-21T11:09:35.533Z,23.56
2017-07-21T11:10:36.118Z,23.65
2017-07-21T11:11:36.701Z,23.06
2017-07-21T11:12:37.284Z,23.41
2017-07-21T11:13:37.880Z,23.39
2017-07-21T11:14:38.476Z,23.56
2017-07-21T11:15:39.059Z,24.57
2017-07-21T11:16:39.643Z,24.36
2017-07-21T11:17:40.226Z,23.91
2017-07-21T11:18:40.812Z,23.59
2017-07-21T11:19:41.394Z,23.80
2017-07-21T11:20:42.005Z,23.87
2017-07-21T11:21:42.573Z,23.66
2017-07-21T11:22:43.158Z,24.08
2017-07-21T11:23:43.751Z,24.40
2017-07-21T11:24:44.335Z,24.26
2017-07-21T11:25:44.919Z,24.18
2017-07-21T11:26:45.502Z,24.23
2017-07-21T11:27:46.086Z,23.96
2017-07-21T11:28:46.669Z,24.42
2017-07-21T11:29:47.255Z,24.16
2017-07-21T11:30:47.849Z,24.23
2017-07-21T11:31:48.433Z,24.60
2017-07-21T11:32:49.018Z,25.26
2017-07-21T11:33:49.602Z,25.47
2017-07-21T11:34:50.186Z,25.51
2017-07-21T11:35:50.769Z,25.59
2017-07-21T11:36:51.365Z,24.74
2017-07-21T11:37:51.951Z,24.58
2017-07-21T11:38:52.535Z,25.04
2017-07-21T11:39:53.118Z,24.73
2017-07-21T11:40:53.705Z,23.93
2017-07-21T11:41:54.287Z,23.98
2017-07-21T11:42:54.871Z,24.16
2017-07-21T11:43:55.455Z,23.61
2017-07-21T11:44:56.038Z,24.35
2017-07-21T11:45:56.623Z,23.59
2017-07-21T11:46:57.206Z,23.92
2017-07-21T11:47:57.789Z,24.65
2017-07-21T11:48:58.374Z,25.31
2017-07-21T11:49:58.962Z,24.77
2017-07-21T11:50:59.540Z,25.26
2017-07-21T11:52:00.124Z,25.83
2017-07-21T11:53:00.706Z,25.58
2017-07-21T11:54:01.293Z,25.47
2017-07-21T11:55:01.889Z,24.30
2017-07-21T11:56:02.470Z,24.42
2017-07-21T11:57:03.053Z,24.74
2017-07-21T11:58:03.637Z,25.10
2017-07-21T11:59:04.220Z,24.88
2017-07-21T12:00:04.813Z,25.63
2017-07-21T12:01:05.399Z,25.85
2017-07-21T12:02:05.984Z,26.07
2017-07-21T12:03:06.569Z,26.03
2017-07-21T12:04:07.152Z,25.11
2017-07-21T12:05:07.736Z,24.95
2017-07-21T12:06:08.321Z,24.61
2017-07-21T12:07:08.905Z,24.39
2017-07-21T12:08:09.488Z,23.74
2017-07-21T12:09:10.073Z,23.81
2017-07-21T12:10:10.656Z,24.54
2017-07-21T12:11:11.241Z,24.61
2017-07-21T12:12:11.824Z,24.54
2017-07-21T12:13:12.408Z,24.48
2017-07-21T12:14:12.993Z,24.74
2017-07-21T12:15:13.576Z,24.85
2017-07-21T12:16:14.160Z,24.39
2017-07-21T12:17:14.743Z,24.58
2017-07-21T12:18:15.326Z,24.54
2017-07-21T12:19:15.913Z,24.80
2017-07-21T12:20:16.495Z,25.04
2017-07-21T12:21:17.077Z,25.28
2017-07-21T12:22:17.662Z,24.57
2017-07-21T12:23:18.245Z,24.23
2017-07-21T12:24:18.830Z,24.36
2017-07-21T12:25:19.414Z,24.51
2017-07-21T12:26:19.998Z,24.38
2017-07-21T12:27:20.582Z,24.03
2017-07-21T12:28:21.165Z,24.53
2017-07-21T12:29:21.748Z,24.55
2017-07-21T12:30:22.334Z,24.55
2017-07-21T12:31:22.929Z,24.68
2017-07-21T12:32:23.512Z,24.99
2017-07-21T12:33:24.102Z,25.63
2017-07-21T12:34:24.680Z,25.11
2017-07-21T12:35:25.263Z,24.55
2017-07-21T12:36:25.846Z,24.65
2017-07-21T12:37:26.431Z,24.89
2017-07-21T12:38:27.015Z,25.08
2017-07-21T12:39:27.598Z,25.28
2017-07-21T12:40:28.185Z,25.10
2017-07-21T12:41:28.767Z,24.55
2017-07-21T12:42:29.351Z,24.81
2017-07-21T12:43:29.946Z,25.47
2017-07-21T12:44:30.530Z,25.72
2017-07-21T12:45:31.114Z,25.60
2017-07-21T12:46:31.697Z,25.40
2017-07-21T12:47:32.284Z,25.14
2017-07-21T12:48:32.866Z,24.98
2017-07-21T12:49:33.450Z,25.28
2017-07-21T12:50:34.036Z,25.72
2017-07-21T12:51:34.618Z,25.68
2017-07-21T12:52:35.204Z,25.69
2017-07-21T12:53:35.793Z,24.86
2017-07-21T12:54:36.372Z,24.55
2017-07-21T12:55:36.959Z,24.48
2017-07-21T12:56:37.542Z,24.60
2017-07-21T12:57:38.127Z,24.28
2017-07-21T12:58:38.712Z,24.63
2017-07-21T12:59:39.295Z,24.48
2017-07-21T13:00:39.879Z,25.10
2017-07-21T13:01:40.470Z,24.88
2017-07-21T13:02:41.049Z,25.08
2017-07-21T13:03:41.633Z,24.69
2017-07-21T13:04:42.216Z,25.59
2017-07-21T13:05:42.798Z,25.72
2017-07-21T13:06:43.384Z,26.16
2017-07-21T13:07:43.968Z,26.26
2017-07-21T13:08:44.551Z,26.53
2017-07-21T13:09:45.137Z,26.52
2017-07-21T13:10:45.733Z,26.55
2017-07-21T13:11:46.317Z,26.37
2017-07-21T13:12:46.902Z,26.52
2017-07-21T13:13:47.486Z,26.60
2017-07-21T13:14:48.071Z,26.60
2017-07-21T13:15:48.656Z,26.60
2017-07-21T13:16:49.244Z,26.80
2017-07-21T13:17:49.823Z,26.77
2017-07-21T13:18:50.407Z,25.44
2017-07-21T13:19:50.991Z,25.70
2017-07-21T13:20:51.577Z,25.91
2017-07-21T13:21:52.161Z,25.36
2017-07-21T13:22:52.745Z,25.10
2017-07-21T13:23:53.329Z,24.92
2017-07-21T13:24:53.912Z,25.10
2017-07-21T13:25:54.502Z,24.85
2017-07-21T13:26:55.079Z,25.17
2017-07-21T13:27:55.666Z,25.46
2017-07-21T13:28:56.252Z,25.10
2017-07-21T13:29:56.835Z,25.43
2017-07-21T13:30:57.419Z,25.33
2017-07-21T13:31:58.020Z,25.41
2017-07-21T13:32:58.614Z,25.26
2017-07-21T13:33:59.197Z,25.75
2017-07-21T13:34:59.781Z,26.07
2017-07-21T13:36:00.375Z,26.28
2017-07-21T13:37:00.960Z,26.23
2017-07-21T13:38:01.544Z,26.37
2017-07-21T13:39:02.130Z,26.77
2017-07-21T13:40:02.714Z,26.45
2017-07-21T13:41:03.311Z,26.22
2017-07-21T13:42:03.894Z,26.47
2017-07-21T13:43:04.479Z,26.66
2017-07-21T13:44:05.065Z,26.55
2017-07-21T13:45:05.649Z,26.58
2017-07-21T13:46:06.235Z,26.36
2017-07-21T13:47:06.821Z,26.53
2017-07-21T13:48:07.402Z,26.93
2017-07-21T13:49:07.999Z,27.10
2017-07-21T13:50:08.584Z,27.07
2017-07-21T13:51:09.169Z,27.20
2017-07-21T13:52:09.752Z,27.25
2017-07-21T13:53:10.338Z,27.32
2017-07-21T13:54:10.923Z,27.29
2017-07-21T13:55:11.507Z,26.99
2017-07-21T13:56:12.089Z,26.92
2017-07-21T13:57:12.676Z,26.51
2017-07-21T13:58:13.262Z,26.58
2017-07-21T13:59:13.846Z,26.89
2017-07-21T14:00:14.431Z,26.96
2017-07-21T14:01:15.015Z,27.25
2017-07-21T14:02:15.603Z,27.02
2017-07-21T14:03:16.188Z,26.96
2017-07-21T14:04:16.794Z,27.02
2017-07-21T14:05:17.361Z,26.99
2017-07-21T14:06:17.944Z,26.90
2017-07-21T14:07:18.529Z,27.20
2017-07-21T14:08:19.115Z,27.73
2017-07-21T14:09:19.699Z,27.78
2017-07-21T14:10:20.296Z,27.67
2017-07-21T14:11:20.885Z,26.51
2017-07-21T14:12:21.467Z,26.26
2017-07-21T14:13:22.052Z,26.81
2017-07-21T14:14:22.636Z,27.30
2017-07-21T14:15:23.221Z,27.44
2017-07-21T14:16:23.806Z,27.27
2017-07-21T14:17:24.391Z,27.39
2017-07-21T14:18:24.976Z,27.35
2017-07-21T14:19:25.562Z,27.25
2017-07-21T14:20:26.147Z,26.92
2017-07-21T14:21:26.732Z,27.21
2017-07-21T14:22:27.317Z,27.36
2017-07-21T14:23:27.901Z,27.47
2017-07-21T14:24:28.500Z,27.39
2017-07-21T14:25:29.086Z,27.30
2017-07-21T14:26:29.668Z,27.42
2017-07-21T14:27:30.252Z,27.35
2017-07-21T14:28:30.839Z,27.49
2017-07-21T14:29:31.424Z,27.71
2017-07-21T14:30:32.008Z,27.93
2017-07-21T14:31:32.594Z,27.51
2017-07-21T14:32:33.179Z,27.51
2017-07-21T14:33:33.765Z,26.47
2017-07-21T14:34:34.349Z,26.45
2017-07-21T14:35:34.934Z,26.90
2017-07-21T14:36:35.520Z,26.89
2017-07-21T14:37:36.105Z,27.11
2017-07-21T14:38:36.696Z,26.90
2017-07-21T14:39:37.276Z,27.05
2017-07-21T14:40:37.861Z,26.77
2017-07-21T14:41:38.445Z,27.29
2017-07-21T14:42:39.030Z,26.99
2017-07-21T14:43:39.615Z,27.37
2017-07-21T14:44:40.210Z,27.70
2017-07-21T14:45:40.796Z,27.65
2017-07-21T14:46:41.381Z,27.93
2017-07-21T14:47:41.968Z,27.47
2017-07-21T14:48:42.552Z,27.32
2017-07-21T14:49:43.137Z,27.70
2017-07-21T14:50:43.724Z,28.04
2017-07-21T14:51:44.308Z,28.26
2017-07-21T14:52:44.899Z,28.51
2017-07-21T14:53:45.489Z,28.47
2017-07-21T14:54:46.075Z,27.73
2017-07-21T14:55:46.657Z,27.32
2017-07-21T14:56:47.246Z,27.87
2017-07-21T14:57:47.844Z,28.04
2017-07-21T14:58:48.431Z,27.77
2017-07-21T14:59:49.016Z,28.20
2017-07-21T15:00:49.604Z,27.14
2017-07-21T15:01:50.194Z,27.64
2017-07-21T15:02:50.780Z,27.86
2017-07-21T15:03:51.364Z,27.30
2017-07-21T15:04:51.949Z,27.05
2017-07-21T15:05:52.536Z,27.17
2017-07-21T15:06:53.121Z,27.32
2017-07-21T15:07:53.707Z,27.20
2017-07-21T15:08:54.293Z,27.67
2017-07-21T15:09:54.879Z,27.98
2017-07-21T15:10:55.467Z,27.83
2017-07-21T15:11:56.052Z,28.07
2017-07-21T15:12:56.640Z,28.47
2017-07-21T15:13:57.227Z,28.57
2017-07-21T15:14:57.810Z,28.96
2017-07-21T15:15:58.395Z,28.97
2017-07-21T15:16:58.994Z,29.12
2017-07-21T15:17:59.578Z,28.64
2017-07-21T15:19:00.163Z,28.64
2017-07-21T15:20:00.750Z,29.19
2017-07-21T15:21:01.340Z,28.08
2017-07-21T15:22:01.922Z,28.54
2017-07-21T15:23:02.508Z,28.62
2017-07-21T15:24:03.093Z,28.93
2017-07-21T15:25:03.682Z,29.41
2017-07-21T15:26:04.266Z,29.54
2017-07-21T15:27:04.852Z,29.31
2017-07-21T15:28:05.438Z,29.35
2017-07-21T15:29:06.025Z,29.50
2017-07-21T15:30:06.613Z,29.42
2017-07-21T15:31:07.201Z,29.59
2017-07-21T15:32:07.802Z,29.93
2017-07-21T15:33:08.387Z,29.51
2017-07-21T15:34:08.973Z,29.14
2017-07-21T15:35:09.563Z,29.51
2017-07-21T15:36:10.149Z,29.39
2017-07-21T15:37:10.736Z,28.62
2017-07-21T15:38:11.325Z,29.02